createdAt,value
2018-06-04T00:01:17.105Z,13.50
2018-06-04T00:03:22.063Z,17.37
2018-06-04T00:05:27.031Z,13.27
2018-06-04T00:07:31.951Z,15.00
2018-06-04T00:09:36.927Z,14.63
2018-06-04T00:11:41.920Z,16.83
2018-06-04T00:13:46.888Z,20.03
2018-06-04T00:15:52.264Z,17.97
2018-06-04T00:17:57.439Z,20.27
2018-06-04T00:20:02.361Z,21.43
2018-06-04T00:22:07.351Z,20.53
2018-06-04T00:24:12.427Z,20.57
2018-06-04T00:26:17.460Z,24.07
2018-06-04T00:28:22.392Z,22.20
2018-06-04T00:30:27.353Z,19.03
2018-06-04T00:32:32.238Z,21.20
2018-06-04T00:34:37.803Z,23.00
2018-06-04T00:36:42.772Z,21.80
2018-06-04T00:38:47.855Z,20.97
2018-06-04T00:40:53.253Z,24.67
2018-06-04T00:42:58.133Z,23.10
2018-06-04T00:45:03.295Z,22.90
2018-06-04T00:47:08.314Z,21.00
2018-06-04T00:49:13.238Z,24.17
2018-06-04T00:51:18.271Z,21.93
2018-06-04T00:53:23.231Z,22.73
2018-06-04T00:55:28.229Z,22.57
2018-06-04T00:57:33.566Z,20.83
2018-06-04T00:59:38.480Z,23.17
2018-06-04T01:01:43.467Z,22.87
2018-06-04T01:03:48.468Z,25.40
2018-06-04T01:05:53.407Z,22.73
2018-06-04T01:07:58.395Z,23.67
2018-06-04T01:10:03.522Z,25.13
2018-06-04T01:12:08.786Z,23.67
2018-06-04T01:14:13.710Z,28.23
2018-06-04T01:16:18.687Z,25.03
2018-06-04T01:18:23.903Z,27.90
2018-06-04T01:20:28.959Z,31.13
2018-06-04T01:22:33.878Z,33.67
2018-06-04T01:24:38.865Z,25.77
2018-06-04T01:26:43.801Z,34.20
2018-06-04T01:28:48.772Z,33.80
2018-06-04T01:30:53.703Z,28.97
2018-06-04T01:32:58.801Z,25.53
2018-06-04T01:35:03.795Z,24.70
2018-06-04T01:37:08.711Z,28.20
2018-06-04T01:39:13.718Z,24.47
2018-06-04T01:41:18.643Z,30.87
2018-06-04T01:43:23.627Z,24.73
2018-06-04T01:45:47.986Z,26.50
2018-06-04T01:47:55.736Z,26.73
2018-06-04T01:50:00.690Z,22.40
2018-06-04T01:52:05.831Z,24.33
2018-06-04T01:54:10.785Z,21.60
2018-06-04T01:56:15.747Z,29.73
2018-06-04T01:58:20.701Z,26.63
2018-06-04T02:00:25.657Z,22.37
2018-06-04T02:02:31.013Z,38.30
2018-06-04T02:04:35.967Z,26.13
2018-06-04T02:06:40.859Z,29.37
2018-06-04T02:08:45.826Z,25.97
2018-06-04T02:10:50.747Z,30.47
2018-06-04T02:12:55.675Z,28.57
2018-06-04T02:15:00.800Z,27.57
2018-06-04T02:17:06.025Z,23.83
2018-06-04T02:19:11.219Z,24.30
2018-06-04T02:21:16.168Z,24.23
2018-06-04T02:23:21.111Z,29.10
2018-06-04T02:25:26.028Z,29.00
2018-06-04T02:27:30.969Z,29.77
2018-06-04T02:29:35.914Z,29.90
2018-06-04T02:31:40.898Z,31.37
2018-06-04T02:33:45.869Z,29.97
2018-06-04T02:35:50.803Z,44.83
2018-06-04T02:37:56.191Z,42.67
2018-06-04T02:40:01.271Z,33.90
2018-06-04T02:42:06.371Z,31.53
2018-06-04T02:44:11.323Z,39.57
2018-06-04T02:46:16.251Z,36.00
2018-06-04T02:48:21.177Z,29.67
2018-06-04T02:50:26.312Z,31.03
2018-06-04T02:52:31.322Z,34.00
2018-06-04T02:54:36.225Z,29.60
2018-06-04T02:56:41.197Z,37.53
2018-06-04T02:58:46.105Z,44.90
2018-06-04T03:00:51.214Z,52.13
2018-06-04T03:02:56.227Z,44.20
2018-06-04T03:05:01.162Z,38.43
2018-06-04T03:07:06.207Z,44.47
2018-06-04T03:09:11.241Z,47.93
2018-06-04T03:11:16.215Z,41.97
2018-06-04T03:13:21.167Z,36.33
2018-06-04T03:15:26.153Z,32.70
2018-06-04T03:17:31.098Z,32.80
2018-06-04T03:19:36.078Z,32.73
2018-06-04T03:21:41.007Z,37.23
2018-06-04T03:23:45.919Z,43.33
2018-06-04T03:25:50.890Z,39.20
2018-06-04T03:27:55.848Z,30.73
2018-06-04T03:30:00.806Z,31.43
2018-06-04T03:32:05.748Z,42.87
2018-06-04T03:34:10.768Z,37.13
2018-06-04T03:36:15.759Z,36.07
2018-06-04T03:38:20.741Z,32.93
2018-06-04T03:40:25.755Z,40.70
2018-06-04T03:42:30.636Z,35.03
2018-06-04T03:44:35.716Z,42.07
2018-06-04T03:46:40.643Z,45.37
2018-06-04T03:48:45.532Z,36.57
2018-06-04T03:50:50.507Z,45.70
2018-06-04T03:52:55.475Z,42.70
2018-06-04T03:55:00.494Z,46.90
2018-06-04T03:57:05.446Z,44.63
2018-06-04T03:59:10.453Z,47.57
2018-06-04T04:01:15.402Z,47.30
2018-06-04T04:03:20.475Z,52.17
2018-06-04T04:05:25.588Z,48.03
2018-06-04T04:07:30.556Z,52.83
2018-06-04T04:09:35.571Z,54.30
2018-06-04T04:11:40.570Z,51.30
2018-06-04T04:13:46.239Z,50.83
2018-06-04T04:15:51.160Z,53.80
2018-06-04T04:17:56.115Z,57.93
2018-06-04T04:20:01.106Z,57.27
2018-06-04T04:22:06.099Z,38.27
2018-06-04T04:24:10.706Z,47.57
2018-06-04T04:26:15.534Z,51.17
2018-06-04T04:28:20.512Z,48.77
2018-06-04T04:30:25.472Z,51.90
2018-06-04T04:32:30.402Z,49.80
2018-06-04T04:34:35.254Z,47.47
2018-06-04T04:36:40.293Z,51.60
2018-06-04T04:38:45.223Z,59.37
2018-06-04T04:40:50.198Z,60.67
2018-06-04T04:42:56.920Z,58.40
2018-06-04T04:45:02.581Z,54.83
2018-06-04T04:47:07.777Z,49.10
2018-06-04T04:49:13.553Z,64.20
2018-06-04T04:51:19.657Z,57.93
2018-06-04T04:53:26.401Z,61.63
2018-06-04T04:55:33.786Z,62.80
2018-06-04T04:57:39.530Z,52.87
2018-06-04T04:59:44.596Z,40.97
2018-06-04T05:01:50.137Z,56.47
2018-06-04T05:03:55.747Z,58.47
2018-06-04T05:06:01.029Z,53.00
2018-06-04T05:08:06.574Z,39.83
2018-06-04T05:10:12.168Z,54.70
2018-06-04T05:12:17.238Z,54.10
2018-06-04T05:14:23.669Z,56.57
2018-06-04T05:16:29.058Z,56.97
2018-06-04T05:18:33.996Z,59.63
2018-06-04T05:20:38.992Z,58.07
2018-06-04T05:22:44.926Z,49.87
2018-06-04T05:24:50.264Z,52.67
2018-06-04T05:26:56.883Z,56.37
2018-06-04T05:29:02.267Z,54.47
2018-06-04T05:31:07.839Z,51.73
2018-06-04T05:33:13.059Z,56.90
2018-06-04T05:35:19.180Z,54.83
2018-06-04T05:37:24.578Z,53.63
2018-06-04T05:39:29.947Z,58.87
2018-06-04T05:41:35.502Z,54.63
2018-06-04T05:43:40.924Z,51.97
2018-06-04T05:45:49.463Z,59.63
2018-06-04T05:47:54.855Z,51.07
2018-06-04T05:50:01.321Z,44.37
2018-06-04T05:52:08.987Z,49.47
2018-06-04T05:54:14.938Z,47.97
2018-06-04T05:56:20.738Z,100.53
2018-06-04T05:58:26.075Z,61.43
2018-06-04T06:00:31.028Z,65.27
2018-06-04T06:02:37.006Z,48.80
2018-06-04T06:04:41.954Z,47.87
2018-06-04T06:06:47.035Z,51.83
2018-06-04T06:08:51.989Z,55.93
2018-06-04T06:10:57.159Z,55.57
2018-06-04T06:13:02.139Z,35.77
2018-06-04T06:15:08.064Z,51.50
2018-06-04T06:17:14.617Z,39.03
2018-06-04T06:19:21.519Z,52.37
2018-06-04T06:21:27.217Z,51.67
2018-06-04T06:23:33.374Z,116.97
2018-06-04T06:25:39.195Z,32.50
2018-06-04T06:27:46.052Z,32.20
2018-06-04T06:29:51.613Z,35.90
2018-06-04T06:31:56.819Z,41.73
2018-06-04T06:34:02.559Z,44.77
2018-06-04T06:36:07.844Z,33.83
2018-06-04T06:38:14.353Z,28.03
2018-06-04T06:40:19.784Z,35.90
2018-06-04T06:42:24.832Z,43.33
2018-06-04T06:44:30.112Z,37.87
2018-06-04T06:46:35.165Z,40.53
2018-06-04T06:48:40.920Z,39.60
2018-06-04T06:50:47.380Z,31.97
2018-06-04T06:52:52.291Z,32.73
2018-06-04T06:54:57.258Z,34.87
2018-06-04T06:57:01.732Z,32.83
2018-06-04T06:59:11.625Z,33.77
2018-06-04T07:01:18.640Z,30.30
2018-06-04T07:03:24.482Z,32.07
2018-06-04T07:05:30.304Z,28.83
2018-06-04T07:07:36.807Z,30.93
2018-06-04T07:09:42.258Z,27.37
2018-06-04T07:11:47.979Z,27.17
2018-06-04T07:13:53.430Z,25.30
2018-06-04T07:15:59.348Z,27.23
2018-06-04T07:18:05.201Z,26.93
2018-06-04T07:20:10.584Z,26.57
2018-06-04T07:22:15.752Z,26.23
2018-06-04T07:24:22.491Z,26.40
2018-06-04T07:26:27.738Z,26.83
2018-06-04T07:28:33.281Z,26.57
2018-06-04T07:30:38.631Z,23.07
2018-06-04T07:32:44.268Z,20.47
2018-06-04T07:34:50.972Z,20.60
2018-06-04T07:36:55.950Z,26.00
2018-06-04T07:39:00.939Z,18.73
2018-06-04T07:41:06.797Z,21.10
2018-06-04T07:43:11.356Z,21.17
2018-06-04T07:45:16.184Z,19.57
2018-06-04T07:47:21.318Z,18.13
2018-06-04T07:49:26.385Z,21.07
2018-06-04T07:51:31.623Z,18.67
2018-06-04T07:53:37.007Z,17.50
2018-06-04T07:55:42.239Z,19.27
2018-06-04T07:57:47.359Z,17.97
2018-06-04T07:59:52.451Z,19.20
2018-06-04T08:01:57.758Z,17.20
2018-06-04T08:04:02.728Z,17.40
2018-06-04T08:06:09.427Z,19.23
2018-06-04T08:08:14.512Z,22.63
2018-06-04T08:10:20.750Z,15.77
2018-06-04T08:12:25.947Z,18.50
2018-06-04T08:14:31.027Z,15.43
2018-06-04T08:16:36.245Z,21.47
2018-06-04T08:18:41.266Z,15.97
2018-06-04T08:20:46.694Z,15.50
2018-06-04T08:22:51.682Z,17.83
2018-06-04T08:25:05.646Z,15.77
2018-06-04T08:27:13.679Z,15.67
2018-06-04T08:29:19.335Z,12.93
2018-06-04T08:31:25.841Z,14.27
2018-06-04T08:33:31.892Z,14.20
2018-06-04T08:35:37.380Z,13.53
2018-06-04T08:37:43.738Z,15.13
2018-06-04T08:39:50.885Z,13.37
2018-06-04T08:41:55.865Z,13.10
2018-06-04T08:44:01.496Z,12.23
2018-06-04T08:46:07.907Z,11.43
2018-06-04T08:48:13.738Z,12.20
2018-06-04T08:50:19.638Z,12.10
2018-06-04T08:52:24.766Z,11.87
2018-06-04T08:54:30.152Z,11.17
2018-06-04T08:56:36.120Z,16.20
2018-06-04T08:58:42.504Z,11.53
2018-06-04T09:00:48.359Z,11.60
2018-06-04T09:02:53.486Z,12.07
2018-06-04T09:04:58.619Z,10.93
2018-06-04T09:07:03.604Z,11.00
2018-06-04T09:09:08.964Z,11.83
2018-06-04T09:11:13.868Z,9.67
2018-06-04T09:13:18.783Z,9.73
2018-06-04T09:15:23.794Z,10.73
2018-06-04T09:17:43.888Z,10.63
2018-06-04T09:19:51.069Z,20.47
2018-06-04T09:21:57.268Z,13.47
2018-06-04T09:24:02.324Z,13.53
2018-06-04T09:26:07.713Z,14.93
2018-06-04T09:28:12.691Z,13.93
2018-06-04T09:30:19.068Z,13.53
2018-06-04T09:32:25.770Z,14.10
2018-06-04T09:34:31.663Z,14.50
2018-06-04T09:36:37.607Z,15.37
2018-06-04T09:38:43.202Z,19.40
2018-06-04T09:40:49.319Z,19.37
2018-06-04T09:42:55.299Z,17.30
2018-06-04T09:45:00.903Z,14.43
2018-06-04T09:47:06.153Z,17.20
2018-06-04T09:49:11.966Z,18.67
2018-06-04T09:51:17.675Z,19.57
2018-06-04T09:53:23.802Z,16.67
2018-06-04T09:55:28.808Z,17.50
2018-06-04T09:57:33.798Z,18.43
2018-06-04T09:59:39.035Z,17.43
2018-06-04T10:01:44.012Z,14.93
2018-06-04T10:03:48.979Z,17.33
2018-06-04T10:05:53.932Z,18.30
2018-06-04T10:07:58.903Z,16.70
2018-06-04T10:10:06.095Z,16.07
2018-06-04T10:12:11.843Z,16.60
2018-06-04T10:14:16.835Z,15.93
2018-06-04T10:16:21.807Z,16.43
2018-06-04T10:18:27.023Z,15.87
2018-06-04T10:20:31.525Z,18.93
2018-06-04T10:22:36.445Z,16.83
2018-06-04T10:24:41.516Z,15.77
2018-06-04T10:26:46.555Z,15.63
2018-06-04T10:28:51.445Z,15.63
2018-06-04T10:30:56.400Z,17.33
2018-06-04T10:33:01.358Z,14.77
2018-06-04T10:35:06.355Z,14.90
2018-06-04T10:37:11.335Z,17.00
2018-06-04T10:39:16.359Z,15.67
2018-06-04T10:41:21.286Z,17.60
2018-06-04T10:43:26.203Z,17.73
2018-06-04T10:45:31.656Z,18.57
2018-06-04T10:47:36.681Z,20.27
2018-06-04T10:49:41.722Z,21.20
2018-06-04T10:51:46.703Z,18.77
2018-06-04T10:53:51.692Z,16.03
2018-06-04T10:55:56.595Z,20.03
2018-06-04T10:58:01.730Z,20.60
2018-06-04T11:00:07.185Z,16.85
2018-06-04T11:02:12.310Z,19.80
2018-06-04T11:04:19.337Z,20.03
2018-06-04T11:06:24.884Z,17.80
2018-06-04T11:08:31.042Z,18.60
2018-06-04T11:10:36.405Z,15.80
2018-06-04T11:12:42.986Z,16.93
2018-06-04T11:14:48.503Z,20.27
2018-06-04T11:16:54.063Z,17.20
2018-06-04T11:18:59.955Z,17.77
2018-06-04T11:21:06.230Z,16.83
2018-06-04T11:23:12.162Z,18.70
2018-06-04T11:25:19.213Z,18.37
2018-06-04T11:27:24.356Z,21.60
2018-06-04T11:29:30.578Z,18.33
2018-06-04T11:31:36.002Z,18.63
2018-06-04T11:33:41.526Z,19.00
2018-06-04T11:35:47.200Z,12.47
2018-06-04T11:37:52.807Z,15.63
2018-06-04T11:39:58.562Z,18.07
2018-06-04T11:42:03.519Z,19.93
2018-06-04T11:44:08.443Z,16.93
2018-06-04T11:46:15.743Z,17.13
2018-06-04T11:48:22.473Z,15.70
2018-06-04T11:50:28.274Z,16.37
2018-06-04T11:52:33.918Z,17.77
2018-06-04T11:54:40.170Z,16.97
2018-06-04T11:56:46.898Z,14.80
2018-06-04T11:58:52.064Z,16.40
2018-06-04T12:00:57.994Z,16.80
2018-06-04T12:03:03.456Z,16.27
2018-06-04T12:05:09.917Z,15.40
2018-06-04T12:07:15.988Z,17.03
2018-06-04T12:09:22.612Z,19.03
2018-06-04T12:11:27.981Z,14.30
2018-06-04T12:13:34.074Z,14.77
2018-06-04T12:15:39.257Z,13.73
2018-06-04T12:17:44.350Z,13.37
2018-06-04T12:19:49.798Z,15.13
2018-06-04T12:21:55.794Z,18.63
2018-06-04T12:24:00.919Z,13.80
2018-06-04T12:26:06.000Z,15.57
2018-06-04T12:28:10.968Z,17.67
2018-06-04T12:30:16.029Z,19.13
2018-06-04T12:32:20.921Z,16.63
2018-06-04T12:34:25.921Z,15.70
2018-06-04T12:36:30.829Z,15.90
2018-06-04T12:38:35.782Z,18.93
2018-06-04T12:40:40.826Z,15.97
2018-06-04T12:42:45.762Z,15.67
2018-06-04T12:44:50.690Z,15.20
2018-06-04T12:46:55.683Z,16.67
2018-06-04T12:49:01.029Z,15.57
2018-06-04T12:51:06.065Z,14.67
2018-06-04T12:53:10.989Z,13.73
2018-06-04T12:55:15.906Z,13.43
2018-06-04T12:57:20.907Z,14.20
2018-06-04T12:59:25.878Z,13.27
2018-06-04T13:01:30.830Z,14.00
2018-06-04T13:03:36.761Z,14.17
2018-06-04T13:05:41.722Z,12.23
2018-06-04T13:07:46.725Z,14.60
2018-06-04T13:09:51.669Z,13.90
2018-06-04T13:11:56.070Z,13.97
2018-06-04T13:14:01.006Z,11.80
2018-06-04T13:16:06.104Z,12.17
2018-06-04T13:18:11.060Z,12.27
2018-06-04T13:20:16.043Z,11.97
2018-06-04T13:22:20.947Z,13.37
2018-06-04T13:24:25.876Z,13.30
2018-06-04T13:26:30.850Z,15.10
2018-06-04T13:28:35.765Z,16.33
2018-06-04T13:30:40.749Z,13.80
2018-06-04T13:32:45.734Z,12.80
2018-06-04T13:34:50.670Z,14.30
2018-06-04T13:36:55.637Z,12.23
2018-06-04T13:39:00.654Z,11.23
2018-06-04T13:41:05.590Z,11.47
2018-06-04T13:43:10.506Z,11.67
2018-06-04T13:45:15.478Z,12.87
2018-06-04T13:47:20.472Z,12.70
2018-06-04T13:49:25.372Z,12.37
2018-06-04T13:51:30.303Z,12.47
2018-06-04T13:53:35.234Z,12.87
2018-06-04T13:55:40.215Z,12.13
2018-06-04T13:57:45.185Z,12.57
2018-06-04T13:59:50.156Z,11.50
2018-06-04T14:01:55.227Z,12.63
2018-06-04T14:04:00.187Z,11.33
2018-06-04T14:06:05.217Z,10.57
2018-06-04T14:08:10.171Z,12.30
2018-06-04T14:10:15.165Z,13.03
2018-06-04T14:12:20.161Z,12.23
2018-06-04T14:14:25.092Z,13.17
2018-06-04T14:16:43.793Z,13.33
2018-06-04T14:18:49.740Z,12.57
2018-06-04T14:20:55.507Z,13.47
2018-06-04T14:23:02.087Z,12.50
2018-06-04T14:25:08.025Z,13.57
2018-06-04T14:27:14.832Z,13.63
2018-06-04T14:29:20.057Z,10.63
2018-06-04T14:31:25.214Z,13.17
2018-06-04T14:33:32.039Z,13.10
2018-06-04T14:35:37.757Z,11.87
2018-06-04T14:37:42.546Z,13.00
2018-06-04T14:39:48.502Z,12.73
2018-06-04T14:41:54.022Z,14.07
2018-06-04T14:43:59.655Z,11.30
2018-06-04T14:46:05.208Z,16.27
2018-06-04T14:48:11.267Z,10.33
2018-06-04T14:50:16.859Z,11.40
2018-06-04T14:52:23.091Z,15.67
2018-06-04T14:54:29.504Z,14.07
2018-06-04T14:56:34.855Z,11.87
2018-06-04T14:58:40.008Z,12.20
2018-06-04T15:00:45.388Z,11.60
2018-06-04T15:02:50.673Z,10.77
2018-06-04T15:04:57.428Z,10.20
2018-06-04T15:07:03.653Z,12.13
2018-06-04T15:09:10.179Z,10.90
2018-06-04T15:11:15.159Z,11.33
2018-06-04T15:13:31.292Z,10.83
2018-06-04T15:15:37.869Z,9.50
2018-06-04T15:17:43.278Z,9.90
2018-06-04T15:19:49.370Z,10.37
2018-06-04T15:21:54.470Z,10.07
2018-06-04T15:24:00.390Z,9.90
2018-06-04T15:26:05.992Z,10.63
2018-06-04T15:28:12.417Z,9.50
2018-06-04T15:30:18.556Z,12.07
2018-06-04T15:32:24.094Z,10.50
2018-06-04T15:34:31.102Z,10.27
2018-06-04T15:36:37.134Z,9.20
2018-06-04T15:38:42.476Z,12.37
2018-06-04T15:40:48.201Z,8.93
2018-06-04T15:42:54.081Z,8.30
2018-06-04T15:44:59.721Z,9.57
2018-06-04T15:47:05.275Z,10.80
2018-06-04T15:49:11.870Z,8.77
2018-06-04T15:51:16.826Z,10.90
2018-06-04T15:53:22.154Z,8.83
2018-06-04T15:55:27.434Z,10.00
2018-06-04T15:57:32.422Z,8.43
2018-06-04T15:59:37.405Z,9.87
2018-06-04T16:01:42.389Z,10.47
2018-06-04T16:03:47.360Z,10.03
2018-06-04T16:05:52.307Z,9.23
2018-06-04T16:07:57.279Z,8.30
2018-06-04T16:10:02.282Z,8.60
2018-06-04T16:12:07.972Z,9.10
2018-06-04T16:14:12.416Z,7.93
2018-06-04T16:16:17.237Z,7.90
2018-06-04T16:18:22.204Z,8.90
2018-06-04T16:20:27.306Z,8.30
2018-06-04T16:22:32.922Z,7.23
2018-06-04T16:24:38.245Z,9.03
2018-06-04T16:26:43.363Z,8.33
2018-06-04T16:28:48.309Z,6.37
2018-06-04T16:30:53.226Z,9.47
2018-06-04T16:32:58.162Z,8.63
2018-06-04T16:35:03.328Z,7.70
2018-06-04T16:37:08.403Z,6.97
2018-06-04T16:39:13.421Z,7.17
2018-06-04T16:41:18.370Z,9.27
2018-06-04T16:43:23.340Z,6.60
2018-06-04T16:45:27.792Z,6.70
2018-06-04T16:47:32.875Z,7.50
2018-06-04T16:49:37.803Z,8.53
2018-06-04T16:51:42.802Z,7.10
2018-06-04T16:53:47.667Z,8.43
2018-06-04T16:55:52.938Z,9.50
2018-06-04T16:57:57.882Z,10.80
2018-06-04T17:00:02.887Z,6.80
2018-06-04T17:02:07.783Z,9.10
2018-06-04T17:04:12.705Z,9.10
2018-06-04T17:06:17.586Z,8.63
2018-06-04T17:08:22.642Z,10.80
2018-06-04T17:10:27.587Z,11.47
2018-06-04T17:12:32.524Z,13.70
2018-06-04T17:14:37.480Z,9.77
2018-06-04T17:16:42.462Z,11.40
2018-06-04T17:18:47.386Z,12.87
2018-06-04T17:20:52.329Z,11.83
2018-06-04T17:22:57.235Z,11.77
2018-06-04T17:25:02.246Z,13.47
2018-06-04T17:27:07.284Z,13.10
2018-06-04T17:29:12.678Z,11.77
2018-06-04T17:31:17.654Z,15.03
2018-06-04T17:33:22.648Z,16.77
2018-06-04T17:35:27.718Z,13.80
2018-06-04T17:37:32.666Z,13.27
2018-06-04T17:39:37.654Z,13.00
2018-06-04T17:41:42.520Z,14.77
2018-06-04T17:43:47.462Z,16.23
2018-06-04T17:45:52.427Z,14.20
2018-06-04T17:47:57.343Z,19.37
2018-06-04T17:50:02.334Z,20.57
2018-06-04T17:52:07.353Z,17.17
2018-06-04T17:54:12.490Z,17.33
2018-06-04T17:56:17.490Z,16.47
2018-06-04T17:58:22.506Z,20.53
2018-06-04T18:00:27.482Z,15.40
2018-06-04T18:02:32.432Z,22.10
2018-06-04T18:04:37.385Z,16.87
2018-06-04T18:06:42.351Z,16.13
2018-06-04T18:08:47.334Z,15.23
2018-06-04T18:10:52.526Z,18.63
2018-06-04T18:12:57.496Z,16.90
2018-06-04T18:15:01.920Z,19.00
2018-06-04T18:17:06.888Z,18.20
2018-06-04T18:19:11.848Z,15.17
2018-06-04T18:21:16.774Z,16.57
2018-06-04T18:23:21.768Z,17.03
2018-06-04T18:25:26.783Z,16.07
2018-06-04T18:27:31.942Z,18.97
2018-06-04T18:29:38.023Z,14.93
2018-06-04T18:31:42.917Z,16.63
2018-06-04T18:33:47.903Z,16.30
2018-06-04T18:35:52.842Z,18.87
2018-06-04T18:37:57.850Z,17.30
2018-06-04T18:40:02.877Z,16.03
2018-06-04T18:42:08.411Z,14.17
2018-06-04T18:44:13.459Z,14.97
2018-06-04T18:46:18.418Z,14.97
2018-06-04T18:48:23.434Z,13.03
2018-06-04T18:50:29.014Z,13.00
2018-06-04T18:52:33.918Z,16.47
2018-06-04T18:54:38.899Z,15.97
2018-06-04T18:56:43.922Z,14.23
2018-06-04T18:58:48.892Z,15.63
2018-06-04T19:00:53.887Z,14.53
2018-06-04T19:02:58.870Z,15.03
2018-06-04T19:05:03.934Z,14.73
2018-06-04T19:07:08.875Z,14.90
2018-06-04T19:09:13.843Z,15.97
2018-06-04T19:11:18.313Z,15.53
2018-06-04T19:13:23.133Z,15.27
2018-06-04T19:15:28.168Z,19.73
2018-06-04T19:17:33.224Z,17.10
2018-06-04T19:19:38.121Z,17.70
2018-06-04T19:21:44.143Z,20.17
2018-06-04T19:23:49.149Z,16.43
2018-06-04T19:25:54.330Z,14.57
2018-06-04T19:27:59.470Z,15.10
2018-06-04T19:30:05.541Z,16.43
2018-06-04T19:32:10.499Z,17.27
2018-06-04T19:34:15.451Z,16.10
2018-06-04T19:36:20.412Z,16.33
2018-06-04T19:38:25.389Z,17.07
2018-06-04T19:40:30.358Z,16.17
2018-06-04T19:42:36.204Z,15.50
2018-06-04T19:44:42.218Z,15.37
2018-06-04T19:46:47.354Z,15.33
2018-06-04T19:48:52.228Z,13.30
2018-06-04T19:50:57.187Z,15.57
2018-06-04T19:53:02.202Z,15.53
2018-06-04T19:55:07.164Z,14.47
2018-06-04T19:57:12.122Z,15.97
2018-06-04T19:59:16.986Z,13.13
2018-06-04T20:01:21.938Z,13.27
2018-06-04T20:03:26.882Z,12.27
2018-06-04T20:05:31.871Z,11.93
2018-06-04T20:07:36.796Z,12.77
2018-06-04T20:09:41.756Z,13.93
2018-06-04T20:11:46.726Z,14.60
2018-06-04T20:13:52.278Z,13.97
2018-06-04T20:15:58.978Z,12.27
2018-06-04T20:18:04.524Z,12.10
2018-06-04T20:20:10.295Z,13.07
2018-06-04T20:22:15.983Z,10.30
2018-06-04T20:24:21.421Z,12.70
2018-06-04T20:26:26.940Z,12.37
2018-06-04T20:28:33.140Z,10.83
2018-06-04T20:30:39.302Z,12.57
2018-06-04T20:32:44.479Z,13.00
2018-06-04T20:34:49.889Z,10.13
2018-06-04T20:36:55.768Z,12.60
2018-06-04T20:39:00.925Z,10.07
2018-06-04T20:41:06.746Z,10.47
2018-06-04T20:43:12.180Z,9.20
2018-06-04T20:45:17.457Z,9.27
2018-06-04T20:47:23.131Z,12.30
2018-06-04T20:49:29.853Z,9.43
2018-06-04T20:51:34.769Z,10.30
2018-06-04T20:53:49.389Z,11.77
2018-06-04T20:55:55.863Z,10.93
2018-06-04T20:58:02.414Z,9.50
2018-06-04T21:00:08.446Z,11.40
2018-06-04T21:02:14.046Z,12.27
2018-06-04T21:04:19.416Z,11.40
2018-06-04T21:06:24.319Z,9.57
2018-06-04T21:08:30.934Z,11.83
2018-06-04T21:10:37.418Z,12.53
2018-06-04T21:12:43.037Z,11.70
2018-06-04T21:14:50.129Z,12.43
2018-06-04T21:16:55.484Z,9.77
2018-06-04T21:19:02.483Z,9.77
2018-06-04T21:21:09.466Z,12.87
2018-06-04T21:23:14.941Z,11.47
2018-06-04T21:25:20.403Z,10.17
2018-06-04T21:27:25.266Z,8.40
2018-06-04T21:29:30.513Z,14.77
2018-06-04T21:31:36.670Z,10.60
2018-06-04T21:33:41.685Z,9.43
2018-06-04T21:35:46.585Z,11.10
2018-06-04T21:37:51.587Z,16.80
2018-06-04T21:40:05.854Z,11.90
2018-06-04T21:42:12.557Z,14.30
2018-06-04T21:44:18.369Z,19.27
2018-06-04T21:46:23.950Z,11.90
2018-06-04T21:48:30.105Z,9.60
2018-06-04T21:50:36.153Z,11.97
2018-06-04T21:52:42.920Z,10.33
2018-06-04T21:54:49.685Z,14.20
2018-06-04T21:56:55.542Z,8.63
2018-06-04T21:59:00.452Z,8.23
2018-06-04T22:01:06.033Z,12.13
2018-06-04T22:03:12.623Z,8.23
2018-06-04T22:05:17.813Z,14.27
2018-06-04T22:07:23.442Z,10.53
2018-06-04T22:09:29.452Z,9.23
2018-06-04T22:11:36.577Z,10.00
2018-06-04T22:13:43.446Z,11.83
2018-06-04T22:15:49.870Z,13.17
2018-06-04T22:17:54.766Z,11.63
2018-06-04T22:19:59.727Z,10.83
2018-06-04T22:22:04.145Z,11.37
2018-06-04T22:24:08.978Z,16.73
2018-06-04T22:26:13.878Z,11.03
2018-06-04T22:28:18.775Z,12.07
2018-06-04T22:30:24.242Z,12.40
2018-06-04T22:32:30.496Z,13.50
2018-06-04T22:34:36.853Z,11.73
2018-06-04T22:36:43.226Z,9.33
2018-06-04T22:38:48.844Z,9.47
2018-06-04T22:40:55.634Z,11.30
2018-06-04T22:43:03.223Z,10.83
2018-06-04T22:45:08.669Z,10.97
2018-06-04T22:47:14.292Z,11.70
2018-06-04T22:49:19.376Z,11.30
2018-06-04T22:51:26.007Z,10.47
2018-06-04T22:53:31.350Z,9.30
2018-06-04T22:55:36.777Z,13.57
2018-06-04T22:57:42.930Z,11.30
2018-06-04T22:59:48.211Z,11.87
2018-06-04T23:01:54.133Z,10.13
2018-06-04T23:04:01.275Z,10.70
2018-06-04T23:06:07.069Z,11.27
2018-06-04T23:08:13.244Z,12.20
2018-06-04T23:10:19.061Z,12.03
2018-06-04T23:12:24.537Z,10.00
2018-06-04T23:14:30.278Z,10.80
2018-06-04T23:16:36.442Z,10.20
2018-06-04T23:18:42.182Z,9.27
2018-06-04T23:20:47.234Z,12.70
2018-06-04T23:22:52.376Z,10.83
2018-06-04T23:24:57.396Z,9.63
2018-06-04T23:27:02.543Z,10.13
2018-06-04T23:29:07.488Z,8.37
2018-06-04T23:31:12.599Z,13.87
2018-06-04T23:33:17.573Z,9.43
2018-06-04T23:35:30.177Z,10.73
2018-06-04T23:37:36.842Z,11.13
2018-06-04T23:39:42.345Z,11.13
2018-06-04T23:41:48.315Z,10.83
2018-06-04T23:43:55.112Z,18.67
2018-06-04T23:46:00.515Z,10.33
2018-06-04T23:48:06.562Z,12.73
2018-06-04T23:50:14.440Z,11.67
2018-06-04T23:52:20.109Z,15.47
2018-06-04T23:54:25.897Z,15.70
2018-06-04T23:56:31.930Z,16.73
2018-06-04T23:58:37.862Z,14.37
